createdAt,value
2023-11-24T00:02:16.781Z,7.30
2023-11-24T00:04:45.145Z,7.10
2023-11-24T00:07:12.817Z,7.70
2023-11-24T00:09:39.860Z,7.30
2023-11-24T00:12:07.356Z,7.00
2023-11-24T00:14:34.172Z,7.00
2023-11-24T00:17:00.995Z,7.10
2023-11-24T00:19:27.827Z,7.20
2023-11-24T00:21:54.843Z,7.10
2023-11-24T00:24:22.195Z,7.20
2023-11-24T00:26:49.071Z,7.30
2023-11-24T00:29:16.914Z,7.30
2023-11-24T00:31:44.595Z,7.00
2023-11-24T00:34:11.630Z,7.20
2023-11-24T00:36:38.579Z,7.10
2023-11-24T00:39:05.649Z,7.00
2023-11-24T00:41:33.466Z,7.10
2023-11-24T00:44:02.979Z,7.20
2023-11-24T00:46:30.651Z,7.00
2023-11-24T00:48:58.258Z,7.20
2023-11-24T00:51:26.143Z,7.40
2023-11-24T00:53:54.251Z,6.90
2023-11-24T00:56:21.148Z,6.90
2023-11-24T00:58:48.114Z,7.10
2023-11-24T01:01:14.985Z,6.90
2023-11-24T01:03:42.134Z,6.80
2023-11-24T01:06:09.468Z,6.90
2023-11-24T01:08:36.763Z,7.40
2023-11-24T01:11:03.712Z,7.10
2023-11-24T01:13:34.106Z,7.00
2023-11-24T01:16:01.249Z,6.80
2023-11-24T01:18:28.966Z,6.90
2023-11-24T01:20:56.168Z,6.80
2023-11-24T01:23:23.289Z,6.80
2023-11-24T01:25:50.134Z,6.80
2023-11-24T01:28:16.993Z,6.80
2023-11-24T01:30:44.584Z,6.90
2023-11-24T01:33:11.604Z,6.80
2023-11-24T01:35:38.623Z,7.20
2023-11-24T01:38:05.480Z,6.90
2023-11-24T01:40:35.077Z,7.00
2023-11-24T01:43:02.112Z,7.20
2023-11-24T01:45:29.640Z,7.20
2023-11-24T01:47:56.505Z,7.00
2023-11-24T01:50:23.903Z,7.10
2023-11-24T01:52:50.897Z,7.10
2023-11-24T01:55:18.502Z,6.90
2023-11-24T01:57:45.910Z,6.80
2023-11-24T02:00:17.124Z,7.00
2023-11-24T02:02:44.272Z,7.00
2023-11-24T02:05:13.216Z,7.00
2023-11-24T02:07:42.136Z,7.10
2023-11-24T02:10:11.966Z,7.10
2023-11-24T02:12:39.294Z,7.20
2023-11-24T02:15:08.719Z,7.20
2023-11-24T02:17:36.873Z,7.30
2023-11-24T02:20:08.255Z,7.30
2023-11-24T02:22:40.847Z,7.60
2023-11-24T02:25:08.723Z,7.20
2023-11-24T02:27:35.618Z,7.40
2023-11-24T02:30:03.020Z,7.40
2023-11-24T02:32:30.218Z,7.60
2023-11-24T02:34:57.064Z,7.50
2023-11-24T02:37:23.905Z,7.40
2023-11-24T02:39:50.721Z,7.60
2023-11-24T02:42:17.675Z,7.70
2023-11-24T02:45:18.466Z,7.40
2023-11-24T02:47:45.322Z,7.50
2023-11-24T02:50:12.477Z,7.30
2023-11-24T02:52:39.329Z,7.60
2023-11-24T02:55:07.496Z,7.40
2023-11-24T02:57:34.465Z,7.50
2023-11-24T03:00:02.178Z,7.20
2023-11-24T03:02:29.053Z,7.20
2023-11-24T03:04:55.952Z,7.10
2023-11-24T03:07:23.776Z,7.20
2023-11-24T03:09:50.624Z,7.20
2023-11-24T03:12:17.976Z,7.50
2023-11-24T03:14:44.883Z,7.20
2023-11-24T03:17:11.877Z,7.20
2023-11-24T03:19:38.736Z,7.20
2023-11-24T03:22:05.712Z,7.40
2023-11-24T03:24:32.545Z,7.30
2023-11-24T03:26:59.377Z,7.30
2023-11-24T03:29:26.262Z,7.30
2023-11-24T03:31:53.123Z,7.20
2023-11-24T03:34:19.977Z,7.30
2023-11-24T03:36:46.860Z,7.30
2023-11-24T03:39:15.137Z,7.40
2023-11-24T03:41:42.386Z,7.30
2023-11-24T03:44:09.384Z,7.30
2023-11-24T03:46:36.233Z,7.40
2023-11-24T03:49:03.231Z,7.30
2023-11-24T03:51:30.152Z,7.30
2023-11-24T03:53:56.993Z,7.40
2023-11-24T03:56:24.549Z,7.30
2023-11-24T03:58:51.362Z,7.60
2023-11-24T04:01:18.355Z,7.40
2023-11-24T04:03:48.735Z,7.50
2023-11-24T04:06:16.179Z,7.40
2023-11-24T04:08:43.921Z,7.20
2023-11-24T04:11:11.574Z,7.30
2023-11-24T04:13:38.675Z,7.50
2023-11-24T04:16:07.785Z,7.40
2023-11-24T04:18:34.796Z,7.50
2023-11-24T04:21:01.636Z,7.40
2023-11-24T04:23:28.466Z,7.40
2023-11-24T04:25:55.273Z,7.70
2023-11-24T04:28:22.136Z,7.60
2023-11-24T04:30:48.993Z,7.50
2023-11-24T04:33:15.870Z,7.50
2023-11-24T04:35:43.144Z,7.60
2023-11-24T04:38:11.006Z,7.50
2023-11-24T04:40:38.216Z,7.50
2023-11-24T04:43:05.150Z,7.50
2023-11-24T04:45:32.352Z,7.50
2023-11-24T04:47:59.287Z,7.50
2023-11-24T04:50:26.156Z,7.70
2023-11-24T04:52:53.042Z,7.50
2023-11-24T04:55:19.877Z,7.70
2023-11-24T04:57:50.971Z,7.40
2023-11-24T05:00:19.469Z,7.60
2023-11-24T05:02:47.586Z,7.50
2023-11-24T05:05:14.639Z,7.50
2023-11-24T05:07:41.767Z,7.40
2023-11-24T05:10:09.418Z,7.40
2023-11-24T05:12:36.703Z,7.60
2023-11-24T05:15:09.209Z,7.30
2023-11-24T05:17:36.872Z,7.30
2023-11-24T05:20:07.016Z,7.60
2023-11-24T05:22:34.427Z,7.50
2023-11-24T05:25:01.316Z,7.60
2023-11-24T05:27:28.355Z,7.40
2023-11-24T05:29:55.205Z,7.40
2023-11-24T05:32:22.030Z,7.50
2023-11-24T05:34:48.856Z,7.40
2023-11-24T05:37:15.715Z,7.50
2023-11-24T05:39:42.577Z,7.40
2023-11-24T05:42:09.469Z,7.40
2023-11-24T05:44:36.323Z,7.60
2023-11-24T05:47:05.959Z,7.40
2023-11-24T05:49:34.485Z,7.80
2023-11-24T05:52:01.415Z,7.20
2023-11-24T05:54:28.273Z,7.40
2023-11-24T05:56:55.114Z,7.30
2023-11-24T05:59:22.443Z,7.30
2023-11-24T06:01:49.530Z,7.30
2023-11-24T06:04:18.293Z,7.40
2023-11-24T06:06:46.227Z,7.50
2023-11-24T06:09:13.543Z,7.30
2023-11-24T06:11:40.442Z,7.40
2023-11-24T06:14:08.630Z,7.40
2023-11-24T06:16:35.509Z,7.30
2023-11-24T06:19:02.784Z,7.40
2023-11-24T06:21:30.513Z,7.50
2023-11-24T06:23:57.527Z,7.30
2023-11-24T06:26:24.954Z,7.30
2023-11-24T06:28:51.819Z,7.30
2023-11-24T06:31:18.708Z,7.40
2023-11-24T06:33:45.642Z,7.40
2023-11-24T06:36:12.544Z,7.60
2023-11-24T06:38:41.344Z,7.50
2023-11-24T06:41:09.437Z,7.20
2023-11-24T06:43:36.543Z,7.40
2023-11-24T06:46:05.414Z,7.40
2023-11-24T06:48:33.249Z,7.60
2023-11-24T06:51:00.235Z,7.30
2023-11-24T06:53:28.017Z,7.30
2023-11-24T06:55:54.844Z,7.50
2023-11-24T06:58:21.672Z,7.90
2023-11-24T07:00:51.454Z,7.80
2023-11-24T07:03:19.251Z,7.40
2023-11-24T07:05:47.830Z,7.50
2023-11-24T07:08:17.684Z,7.50
2023-11-24T07:10:45.330Z,7.40
2023-11-24T07:13:12.374Z,7.40
2023-11-24T07:15:39.694Z,7.30
2023-11-24T07:18:06.715Z,7.40
2023-11-24T07:20:34.063Z,7.30
2023-11-24T07:23:01.024Z,7.30
2023-11-24T07:25:27.874Z,7.40
2023-11-24T07:27:54.690Z,7.40
2023-11-24T07:30:23.672Z,7.30
2023-11-24T07:32:54.241Z,7.50
2023-11-24T07:35:21.339Z,7.50
2023-11-24T07:37:48.217Z,7.50
2023-11-24T07:40:16.118Z,7.60
2023-11-24T07:42:45.275Z,7.60
2023-11-24T07:45:12.907Z,7.60
2023-11-24T07:47:41.006Z,7.40
2023-11-24T07:50:08.640Z,7.50
2023-11-24T07:52:35.969Z,7.80
2023-11-24T07:55:04.053Z,7.60
2023-11-24T07:57:30.917Z,7.50
2023-11-24T07:59:57.802Z,8.00
2023-11-24T08:02:24.741Z,7.60
2023-11-24T08:04:52.123Z,7.70
2023-11-24T08:07:19.754Z,7.80
2023-11-24T08:09:47.024Z,7.80
2023-11-24T08:12:14.517Z,7.70
2023-11-24T08:14:42.324Z,7.70
2023-11-24T08:17:09.808Z,8.20
2023-11-24T08:19:37.215Z,7.60
2023-11-24T08:22:05.576Z,7.70
2023-11-24T08:24:32.504Z,7.70
2023-11-24T08:26:59.330Z,7.70
2023-11-24T08:29:27.497Z,7.60
2023-11-24T08:31:54.372Z,7.90
2023-11-24T08:34:21.275Z,7.80
2023-11-24T08:36:48.161Z,7.90
2023-11-24T08:39:15.384Z,7.70
2023-11-24T08:41:46.242Z,7.80
2023-11-24T08:44:28.880Z,7.70
2023-11-24T08:47:09.516Z,7.70
2023-11-24T08:49:36.738Z,8.50
2023-11-24T08:52:36.076Z,8.20
2023-11-24T08:55:12.580Z,7.80
2023-11-24T08:57:39.476Z,7.70
2023-11-24T09:00:18.314Z,8.50
2023-11-24T09:03:36.126Z,7.80
2023-11-24T09:06:13.082Z,7.80
2023-11-24T09:08:39.953Z,7.90
2023-11-24T09:11:08.156Z,7.70
2023-11-24T09:13:35.518Z,7.90
2023-11-24T09:16:06.732Z,7.80
2023-11-24T09:18:33.749Z,8.20
2023-11-24T09:21:00.990Z,7.90
2023-11-24T09:23:28.048Z,8.00
2023-11-24T09:25:54.839Z,7.70
2023-11-24T09:28:22.033Z,8.00
2023-11-24T09:30:49.006Z,7.80
2023-11-24T09:33:17.914Z,7.80
2023-11-24T09:35:44.755Z,8.30
2023-11-24T09:38:11.575Z,8.10
2023-11-24T09:40:38.978Z,7.80
2023-11-24T09:43:05.851Z,7.80
2023-11-24T09:45:32.793Z,8.30
2023-11-24T09:48:02.251Z,8.00
2023-11-24T09:50:29.200Z,7.90
2023-11-24T09:53:02.279Z,8.80
2023-11-24T09:55:30.190Z,8.50
2023-11-24T09:57:58.653Z,9.00
2023-11-24T10:00:27.252Z,8.50
2023-11-24T10:03:00.085Z,8.80
2023-11-24T10:05:27.628Z,8.80
2023-11-24T10:07:55.984Z,9.00
2023-11-24T10:10:28.872Z,8.80
2023-11-24T10:13:02.573Z,9.30
2023-11-24T10:15:31.873Z,8.90
2023-11-24T10:17:59.224Z,8.90
2023-11-24T10:20:29.724Z,8.60
2023-11-24T10:22:59.444Z,8.80
2023-11-24T10:25:26.395Z,9.00
2023-11-24T10:28:00.200Z,9.50
2023-11-24T10:30:27.512Z,9.10
2023-11-24T10:32:54.398Z,9.30
2023-11-24T10:35:21.347Z,9.30
2023-11-24T10:37:50.079Z,9.10
2023-11-24T10:40:19.290Z,9.30
2023-11-24T10:42:49.117Z,9.60
2023-11-24T10:45:21.740Z,9.10
2023-11-24T10:48:13.501Z,9.20
2023-11-24T10:50:43.126Z,9.80
2023-11-24T10:53:24.009Z,9.50
2023-11-24T10:55:54.211Z,9.00
2023-11-24T10:58:22.682Z,9.00
2023-11-24T11:00:50.293Z,9.30
2023-11-24T11:03:17.634Z,8.80
2023-11-24T11:05:58.207Z,9.10
2023-11-24T11:08:46.174Z,9.20
2023-11-24T11:11:46.203Z,9.30
2023-11-24T11:14:16.070Z,9.10
2023-11-24T11:16:44.960Z,9.70
2023-11-24T11:19:34.035Z,9.20
2023-11-24T11:22:02.114Z,8.80
2023-11-24T11:24:31.878Z,9.70
2023-11-24T11:26:59.468Z,9.90
2023-11-24T11:29:29.869Z,9.30
2023-11-24T11:31:57.582Z,9.60
2023-11-24T11:34:31.105Z,9.50
2023-11-24T11:37:13.684Z,9.80
2023-11-24T11:39:48.543Z,9.40
2023-11-24T11:42:16.134Z,9.50
2023-11-24T11:44:47.822Z,9.40
2023-11-24T11:47:16.961Z,10.00
2023-11-24T11:50:05.061Z,9.30
2023-11-24T11:52:40.118Z,9.60
2023-11-24T11:55:09.715Z,9.80
2023-11-24T11:57:39.487Z,9.30
2023-11-24T12:00:10.098Z,9.10
2023-11-24T12:02:45.047Z,8.80
2023-11-24T12:05:20.097Z,8.70
2023-11-24T12:08:01.757Z,8.80
2023-11-24T12:10:40.525Z,9.20
2023-11-24T12:13:09.876Z,9.20
2023-11-24T12:15:44.771Z,9.00
2023-11-24T12:18:19.298Z,9.00
2023-11-24T12:20:49.001Z,8.80
2023-11-24T12:23:16.319Z,9.30
2023-11-24T12:25:46.619Z,9.80
2023-11-24T12:28:14.835Z,9.70
2023-11-24T12:30:44.484Z,9.70
2023-11-24T12:33:19.733Z,9.10
2023-11-24T12:35:54.806Z,9.60
2023-11-24T12:38:22.611Z,8.50
2023-11-24T12:40:52.214Z,9.10
2023-11-24T12:43:22.745Z,8.90
2023-11-24T12:45:53.123Z,9.30
2023-11-24T12:48:25.735Z,8.90
2023-11-24T12:50:57.530Z,9.40
2023-11-24T12:53:25.172Z,8.60
2023-11-24T12:55:52.839Z,8.50
2023-11-24T12:58:20.007Z,9.00
2023-11-24T13:00:48.310Z,9.20
2023-11-24T13:03:15.265Z,8.80
2023-11-24T13:05:42.101Z,9.20
2023-11-24T13:08:09.036Z,9.10
2023-11-24T13:10:37.899Z,8.50
2023-11-24T13:13:06.221Z,9.10
2023-11-24T13:15:33.535Z,9.30
2023-11-24T13:18:00.644Z,8.80
2023-11-24T13:20:30.182Z,9.60
2023-11-24T13:22:57.651Z,9.20
2023-11-24T13:25:28.035Z,9.30
2023-11-24T13:27:55.322Z,9.20
2023-11-24T13:30:23.389Z,9.40
2023-11-24T13:32:51.192Z,8.90
2023-11-24T13:35:20.509Z,9.10
2023-11-24T13:37:51.440Z,8.60
2023-11-24T13:40:21.777Z,9.60
2023-11-24T13:42:48.922Z,9.60
2023-11-24T13:45:18.016Z,9.30
2023-11-24T13:47:45.629Z,9.30
2023-11-24T13:50:13.033Z,9.40
2023-11-24T13:52:40.108Z,8.90
2023-11-24T13:55:08.023Z,8.90
2023-11-24T13:57:35.099Z,9.00
2023-11-24T14:00:01.985Z,8.90
2023-11-24T14:02:29.498Z,8.90
2023-11-24T14:04:56.461Z,9.20
2023-11-24T14:07:23.339Z,8.80
2023-11-24T14:09:50.358Z,8.80
2023-11-24T14:12:17.206Z,9.40
2023-11-24T14:14:44.715Z,9.30
2023-11-24T14:17:13.229Z,9.70
2023-11-24T14:19:40.241Z,9.50
2023-11-24T14:22:08.687Z,9.00
2023-11-24T14:24:35.639Z,9.10
2023-11-24T14:27:02.636Z,9.50
2023-11-24T14:29:32.398Z,9.70
2023-11-24T14:31:59.375Z,9.50
2023-11-24T14:34:26.355Z,9.10
2023-11-24T14:36:53.200Z,8.70
2023-11-24T14:39:21.114Z,8.40
2023-11-24T14:41:48.640Z,8.90
2023-11-24T14:44:15.652Z,8.80
2023-11-24T14:46:42.593Z,8.70
2023-11-24T14:49:09.504Z,8.50
2023-11-24T14:51:39.469Z,8.30
2023-11-24T14:54:06.525Z,8.40
2023-11-24T14:56:33.602Z,8.60
2023-11-24T14:59:00.452Z,8.80
2023-11-24T15:01:33.105Z,8.70
2023-11-24T15:04:00.769Z,8.70
2023-11-24T15:06:28.754Z,9.00
2023-11-24T15:09:01.122Z,8.90
2023-11-24T15:11:46.649Z,8.70
2023-11-24T15:14:16.387Z,8.90
2023-11-24T15:16:58.626Z,9.20
2023-11-24T15:19:29.443Z,8.80
2023-11-24T15:21:57.632Z,9.10
2023-11-24T15:24:24.681Z,8.90
2023-11-24T15:26:52.946Z,8.90
2023-11-24T15:29:20.047Z,8.10
2023-11-24T15:31:47.133Z,8.90
2023-11-24T15:34:14.872Z,8.60
2023-11-24T15:36:42.166Z,8.80
2023-11-24T15:39:29.017Z,8.30
2023-11-24T15:41:55.841Z,8.20
2023-11-24T15:44:28.056Z,8.30
2023-11-24T15:46:55.443Z,8.00
2023-11-24T15:49:22.449Z,8.20
2023-11-24T15:51:53.894Z,7.70
2023-11-24T15:54:21.546Z,8.30
2023-11-24T15:56:50.065Z,8.70
2023-11-24T15:59:23.947Z,8.50
2023-11-24T16:01:53.219Z,8.90
2023-11-24T16:04:22.472Z,9.00
2023-11-24T16:06:55.985Z,8.90
2023-11-24T16:09:26.096Z,8.60
2023-11-24T16:12:09.296Z,8.20
2023-11-24T16:14:38.570Z,7.90
2023-11-24T16:17:06.535Z,8.20
2023-11-24T16:19:33.910Z,7.70
2023-11-24T16:22:01.671Z,8.20
2023-11-24T16:24:28.978Z,8.80
2023-11-24T16:26:58.902Z,8.60
2023-11-24T16:29:28.456Z,8.80
2023-11-24T16:32:02.236Z,8.60
2023-11-24T16:34:31.742Z,8.40
2023-11-24T16:37:02.631Z,8.80
2023-11-24T16:39:33.192Z,8.50
2023-11-24T16:42:02.761Z,8.20
2023-11-24T16:44:29.599Z,8.30
2023-11-24T16:47:03.355Z,8.00
2023-11-24T16:49:34.583Z,8.20
2023-11-24T16:52:08.775Z,7.70
2023-11-24T16:54:40.364Z,8.50
2023-11-24T16:57:11.216Z,8.30
2023-11-24T16:59:51.156Z,7.80
2023-11-24T17:02:18.092Z,7.40
2023-11-24T17:04:45.051Z,7.50
2023-11-24T17:07:11.974Z,7.00
2023-11-24T17:09:40.045Z,6.90
2023-11-24T17:12:07.927Z,6.80
2023-11-24T17:14:34.845Z,6.80
2023-11-24T17:17:02.023Z,7.00
2023-11-24T17:19:30.419Z,6.50
2023-11-24T17:21:57.364Z,6.50
2023-11-24T17:24:24.363Z,6.40
2023-11-24T17:26:51.181Z,6.50
2023-11-24T17:29:17.984Z,6.40
2023-11-24T17:31:45.094Z,6.40
2023-11-24T17:34:15.506Z,6.40
2023-11-24T17:36:42.714Z,6.60
2023-11-24T17:39:10.267Z,6.30
2023-11-24T17:41:37.562Z,6.10
2023-11-24T17:44:05.972Z,6.10
2023-11-24T17:46:33.341Z,6.20
2023-11-24T17:49:00.763Z,6.00
2023-11-24T17:51:27.594Z,6.00
2023-11-24T17:53:54.783Z,6.10
2023-11-24T17:56:21.673Z,6.20
2023-11-24T17:58:49.469Z,6.20
2023-11-24T18:01:17.697Z,6.10
2023-11-24T18:03:44.835Z,6.10
2023-11-24T18:06:11.784Z,6.20
2023-11-24T18:08:38.724Z,6.10
2023-11-24T18:11:06.127Z,6.40
2023-11-24T18:13:33.484Z,6.30
2023-11-24T18:16:00.511Z,6.50
2023-11-24T18:18:27.744Z,6.90
2023-11-24T18:20:54.580Z,6.50
2023-11-24T18:23:21.455Z,6.30
2023-11-24T18:25:48.350Z,6.60
2023-11-24T18:28:15.226Z,6.70
2023-11-24T18:30:42.128Z,6.60
2023-11-24T18:33:09.619Z,6.40
2023-11-24T18:35:37.555Z,7.00
2023-11-24T18:38:07.901Z,6.40
2023-11-24T18:40:35.006Z,6.80
2023-11-24T18:43:02.141Z,6.70
2023-11-24T18:45:29.067Z,6.80
2023-11-24T18:47:55.984Z,6.70
2023-11-24T18:50:23.389Z,7.00
2023-11-24T18:52:50.209Z,6.90
2023-11-24T18:55:18.350Z,6.70
2023-11-24T18:57:47.665Z,6.60
2023-11-24T19:00:19.274Z,6.40
2023-11-24T19:02:48.700Z,6.40
2023-11-24T19:05:16.370Z,6.50
2023-11-24T19:07:43.934Z,6.60
2023-11-24T19:10:11.702Z,6.50
2023-11-24T19:12:41.770Z,6.50
2023-11-24T19:15:11.399Z,6.90
2023-11-24T19:17:40.915Z,6.70
2023-11-24T19:20:08.806Z,6.50
2023-11-24T19:22:36.417Z,6.80
2023-11-24T19:25:03.895Z,6.90
2023-11-24T19:27:30.783Z,7.10
2023-11-24T19:29:57.773Z,6.40
2023-11-24T19:32:25.830Z,7.10
2023-11-24T19:34:53.914Z,7.20
2023-11-24T19:37:20.846Z,7.50
2023-11-24T19:39:49.315Z,7.40
2023-11-24T19:42:17.749Z,7.60
2023-11-24T19:44:45.915Z,7.70
2023-11-24T19:47:12.795Z,7.60
2023-11-24T19:49:40.114Z,7.60
2023-11-24T19:52:07.406Z,7.60
2023-11-24T19:54:34.255Z,8.00
2023-11-24T19:57:01.828Z,7.80
2023-11-24T19:59:28.698Z,7.80
2023-11-24T20:01:55.932Z,7.30
2023-11-24T20:04:22.948Z,7.10
2023-11-24T20:06:49.834Z,7.40
2023-11-24T20:09:17.203Z,6.90
2023-11-24T20:11:44.153Z,7.20
2023-11-24T20:14:11.070Z,7.40
2023-11-24T20:16:38.082Z,7.00
2023-11-24T20:19:05.168Z,6.60
2023-11-24T20:21:32.267Z,7.00
2023-11-24T20:23:59.178Z,7.40
2023-11-24T20:26:27.575Z,7.40
2023-11-24T20:28:55.383Z,7.30
2023-11-24T20:31:22.455Z,6.30
2023-11-24T20:33:52.243Z,6.30
2023-11-24T20:36:22.487Z,6.50
2023-11-24T20:38:50.850Z,5.40
2023-11-24T20:41:22.663Z,5.00
2023-11-24T20:43:49.578Z,5.50
2023-11-24T20:46:16.610Z,5.70
2023-11-24T20:48:45.754Z,5.90
2023-11-24T20:51:13.313Z,5.10
2023-11-24T20:53:40.572Z,5.30
2023-11-24T20:56:09.329Z,5.00
2023-11-24T20:58:37.423Z,5.40
2023-11-24T21:01:04.985Z,5.00
2023-11-24T21:03:31.919Z,5.00
2023-11-24T21:05:58.757Z,5.20
2023-11-24T21:08:25.597Z,4.90
2023-11-24T21:10:52.465Z,5.10
2023-11-24T21:13:20.583Z,5.30
2023-11-24T21:15:47.446Z,4.90
2023-11-24T21:18:14.450Z,4.80
2023-11-24T21:20:42.406Z,4.90
2023-11-24T21:23:09.266Z,5.20
2023-11-24T21:25:37.383Z,5.10
2023-11-24T21:28:04.675Z,5.00
2023-11-24T21:30:31.651Z,5.10
2023-11-24T21:32:58.688Z,5.00
2023-11-24T21:35:25.802Z,5.10
2023-11-24T21:37:53.250Z,5.30
2023-11-24T21:40:20.149Z,5.20
2023-11-24T21:42:46.992Z,5.70
2023-11-24T21:45:13.984Z,5.20
2023-11-24T21:47:44.240Z,5.10
2023-11-24T21:50:14.531Z,5.70
2023-11-24T21:52:42.241Z,5.40
2023-11-24T21:55:10.745Z,5.80
2023-11-24T21:57:37.711Z,5.60
2023-11-24T22:00:09.556Z,6.00
2023-11-24T22:02:40.955Z,6.00
2023-11-24T22:05:10.428Z,5.70
2023-11-24T22:07:38.293Z,5.80
2023-11-24T22:10:06.900Z,6.00
2023-11-24T22:12:37.498Z,5.80
2023-11-24T22:15:06.075Z,6.30
2023-11-24T22:17:34.266Z,6.60
2023-11-24T22:20:08.011Z,6.00
2023-11-24T22:22:35.311Z,6.30
2023-11-24T22:25:02.390Z,5.90
2023-11-24T22:27:29.327Z,5.90
2023-11-24T22:30:03.741Z,6.20
2023-11-24T22:32:32.821Z,6.10
2023-11-24T22:35:00.334Z,6.00
2023-11-24T22:37:27.707Z,6.30
2023-11-24T22:39:54.575Z,6.40
2023-11-24T22:42:22.995Z,6.10
2023-11-24T22:44:51.414Z,6.30
2023-11-24T22:47:18.833Z,6.30
2023-11-24T22:49:46.104Z,6.60
2023-11-24T22:52:13.086Z,6.00
2023-11-24T22:54:40.360Z,6.00
2023-11-24T22:57:07.918Z,6.20
2023-11-24T22:59:34.842Z,6.70
2023-11-24T23:02:01.881Z,6.40
2023-11-24T23:04:28.832Z,6.90
2023-11-24T23:06:55.698Z,6.30
2023-11-24T23:09:22.813Z,6.80
2023-11-24T23:11:50.129Z,7.00
2023-11-24T23:14:17.009Z,5.50
2023-11-24T23:16:44.984Z,5.40
2023-11-24T23:19:12.849Z,6.20
2023-11-24T23:21:41.738Z,5.80
2023-11-24T23:24:12.068Z,5.80
2023-11-24T23:26:39.753Z,5.60
2023-11-24T23:29:07.885Z,6.00
2023-11-24T23:31:35.085Z,6.60
2023-11-24T23:34:02.246Z,7.00
2023-11-24T23:36:29.661Z,6.70
2023-11-24T23:38:56.565Z,7.10
2023-11-24T23:41:23.549Z,6.00
2023-11-24T23:43:50.465Z,6.10
2023-11-24T23:46:17.663Z,5.80
2023-11-24T23:48:44.593Z,6.20
2023-11-24T23:51:12.363Z,5.90
2023-11-24T23:53:40.785Z,5.80
2023-11-24T23:56:08.005Z,6.60
2023-11-24T23:58:38.291Z,5.60
